createdAt,value
2023-05-24T00:01:19.839Z,9.74
2023-05-24T00:03:51.788Z,9.76
2023-05-24T00:06:23.365Z,9.70
2023-05-24T00:08:55.289Z,9.71
2023-05-24T00:11:26.774Z,9.67
2023-05-24T00:13:58.276Z,9.67
2023-05-24T00:16:29.852Z,9.69
2023-05-24T00:19:01.638Z,9.70
2023-05-24T00:21:33.138Z,9.67
2023-05-24T00:24:04.973Z,8.42
2023-05-24T00:26:36.473Z,9.68
2023-05-24T00:29:07.963Z,9.68
2023-05-24T00:31:39.563Z,9.73
2023-05-24T00:34:11.123Z,9.74
2023-05-24T00:36:42.966Z,9.76
2023-05-24T00:39:14.447Z,9.76
2023-05-24T00:41:45.963Z,9.75
2023-05-24T00:44:17.477Z,9.75
2023-05-24T00:46:49.138Z,9.75
2023-05-24T00:49:20.627Z,9.71
2023-05-24T00:51:52.520Z,9.74
2023-05-24T00:54:24.004Z,9.76
2023-05-24T00:56:55.583Z,9.75
2023-05-24T00:59:27.326Z,9.82
2023-05-24T01:01:58.970Z,9.84
2023-05-24T01:04:30.987Z,9.87
2023-05-24T01:07:02.514Z,9.89
2023-05-24T01:09:34.015Z,9.91
2023-05-24T01:12:05.504Z,9.92
2023-05-24T01:14:37.007Z,9.85
2023-05-24T01:17:08.489Z,9.88
2023-05-24T01:19:39.990Z,9.85
2023-05-24T01:22:11.475Z,9.83
2023-05-24T01:24:43.303Z,9.84
2023-05-24T01:27:14.966Z,9.83
2023-05-24T01:29:46.834Z,9.87
2023-05-24T01:32:18.547Z,9.89
2023-05-24T01:34:50.022Z,9.93
2023-05-24T01:37:21.822Z,9.94
2023-05-24T01:39:53.318Z,9.95
2023-05-24T01:42:25.194Z,10.00
2023-05-24T01:44:56.731Z,10.00
2023-05-24T01:47:28.288Z,10.02
2023-05-24T01:49:59.825Z,10.08
2023-05-24T01:52:31.646Z,10.09
2023-05-24T01:55:03.581Z,10.08
2023-05-24T01:57:35.092Z,10.14
2023-05-24T02:00:06.896Z,10.17
2023-05-24T02:02:38.428Z,10.21
2023-05-24T02:05:10.326Z,10.20
2023-05-24T02:07:41.805Z,10.21
2023-05-24T02:10:13.701Z,10.16
2023-05-24T02:12:45.184Z,10.17
2023-05-24T02:15:16.871Z,8.97
2023-05-24T02:17:48.499Z,10.19
2023-05-24T02:20:20.486Z,10.18
2023-05-24T02:22:52.038Z,10.21
2023-05-24T02:25:24.062Z,10.18
2023-05-24T02:27:55.892Z,10.21
2023-05-24T02:30:27.783Z,10.18
2023-05-24T02:32:59.724Z,10.20
2023-05-24T02:35:31.247Z,10.23
2023-05-24T02:38:03.072Z,10.23
2023-05-24T02:40:34.548Z,10.23
2023-05-24T02:43:06.437Z,10.22
2023-05-24T02:45:37.928Z,10.16
2023-05-24T02:48:09.747Z,10.15
2023-05-24T02:50:41.370Z,10.13
2023-05-24T02:53:13.032Z,10.09
2023-05-24T02:55:44.507Z,10.10
2023-05-24T02:58:16.230Z,10.11
2023-05-24T03:00:47.720Z,10.06
2023-05-24T03:03:19.286Z,10.02
2023-05-24T03:05:51.235Z,10.00
2023-05-24T03:08:22.716Z,10.06
2023-05-24T03:10:54.206Z,10.04
2023-05-24T03:13:25.688Z,10.07
2023-05-24T03:15:57.508Z,10.13
2023-05-24T03:18:29.034Z,10.06
2023-05-24T03:21:00.882Z,10.08
2023-05-24T03:23:32.386Z,10.05
2023-05-24T03:26:03.896Z,10.03
2023-05-24T03:28:35.397Z,10.09
2023-05-24T03:31:07.405Z,10.15
2023-05-24T03:33:38.885Z,10.18
2023-05-24T03:36:10.364Z,10.16
2023-05-24T03:38:42.242Z,10.15
2023-05-24T03:41:13.714Z,10.21
2023-05-24T03:43:45.226Z,10.18
2023-05-24T03:46:16.782Z,10.19
2023-05-24T03:48:48.639Z,10.20
2023-05-24T03:51:20.115Z,10.19
2023-05-24T03:53:51.884Z,10.26
2023-05-24T03:56:23.369Z,10.32
2023-05-24T03:58:55.138Z,10.33
2023-05-24T04:01:33.246Z,10.31
2023-05-24T04:04:06.085Z,10.37
2023-05-24T04:06:37.585Z,10.37
2023-05-24T04:09:09.314Z,10.40
2023-05-24T04:11:40.791Z,10.45
2023-05-24T04:14:12.303Z,10.51
2023-05-24T04:16:43.825Z,10.49
2023-05-24T04:19:15.694Z,10.57
2023-05-24T04:21:47.607Z,10.54
2023-05-24T04:24:19.713Z,10.60
2023-05-24T04:26:51.878Z,10.68
2023-05-24T04:29:23.516Z,10.75
2023-05-24T04:31:55.402Z,10.63
2023-05-24T04:34:26.958Z,10.66
2023-05-24T04:36:58.839Z,10.71
2023-05-24T04:39:30.376Z,10.73
2023-05-24T04:42:02.200Z,10.74
2023-05-24T04:44:33.699Z,10.67
2023-05-24T04:47:05.629Z,10.71
2023-05-24T04:49:37.151Z,10.78
2023-05-24T04:52:08.863Z,10.68
2023-05-24T04:54:40.402Z,10.89
2023-05-24T04:57:12.219Z,10.96
2023-05-24T04:59:44.003Z,11.01
2023-05-24T05:02:15.525Z,11.04
2023-05-24T05:04:47.111Z,11.04
2023-05-24T05:07:18.595Z,10.95
2023-05-24T05:09:50.262Z,10.85
2023-05-24T05:12:21.751Z,10.83
2023-05-24T05:14:53.585Z,10.98
2023-05-24T05:17:25.065Z,10.98
2023-05-24T05:19:56.818Z,10.88
2023-05-24T05:22:30.100Z,11.02
2023-05-24T05:25:02.789Z,11.08
2023-05-24T05:27:34.335Z,11.14
2023-05-24T05:30:06.121Z,11.19
2023-05-24T05:32:37.836Z,11.30
2023-05-24T05:35:09.429Z,11.36
2023-05-24T05:37:40.936Z,11.35
2023-05-24T05:40:12.415Z,11.52
2023-05-24T05:42:43.926Z,11.70
2023-05-24T05:45:15.464Z,11.82
2023-05-24T05:47:47.293Z,11.85
2023-05-24T05:50:18.842Z,11.67
2023-05-24T05:52:50.824Z,11.64
2023-05-24T05:55:22.399Z,11.67
2023-05-24T05:57:54.240Z,11.80
2023-05-24T06:00:25.741Z,11.81
2023-05-24T06:02:57.627Z,12.00
2023-05-24T06:05:29.589Z,11.98
2023-05-24T06:08:01.064Z,12.02
2023-05-24T06:10:33.005Z,12.35
2023-05-24T06:13:04.514Z,12.28
2023-05-24T06:15:36.026Z,12.62
2023-05-24T06:18:07.536Z,12.68
2023-05-24T06:20:39.094Z,12.91
2023-05-24T06:23:10.609Z,13.11
2023-05-24T06:25:42.484Z,13.07
2023-05-24T06:28:13.984Z,13.05
2023-05-24T06:30:46.362Z,13.23
2023-05-24T06:33:18.265Z,13.20
2023-05-24T06:35:49.790Z,13.19
2023-05-24T06:38:21.308Z,13.47
2023-05-24T06:40:52.796Z,13.05
2023-05-24T06:43:24.712Z,12.93
2023-05-24T06:45:56.203Z,12.61
2023-05-24T06:48:28.074Z,12.43
2023-05-24T06:50:59.776Z,12.51
2023-05-24T06:53:31.741Z,12.46
2023-05-24T06:56:03.234Z,12.67
2023-05-24T06:58:34.749Z,12.94
2023-05-24T07:01:06.749Z,13.18
2023-05-24T07:03:38.292Z,13.19
2023-05-24T07:06:09.821Z,13.15
2023-05-24T07:08:41.325Z,13.02
2023-05-24T07:11:13.046Z,13.19
2023-05-24T07:13:44.556Z,13.18
2023-05-24T07:16:16.607Z,13.39
2023-05-24T07:18:48.127Z,13.32
2023-05-24T07:21:19.876Z,13.43
2023-05-24T07:23:51.370Z,13.44
2023-05-24T07:26:23.405Z,13.47
2023-05-24T07:28:54.906Z,13.24
2023-05-24T07:31:26.733Z,13.14
2023-05-24T07:33:58.262Z,13.44
2023-05-24T07:36:31.603Z,13.49
2023-05-24T07:39:06.030Z,13.65
2023-05-24T07:41:37.541Z,13.98
2023-05-24T07:44:09.243Z,14.35
2023-05-24T07:46:40.771Z,14.21
2023-05-24T07:49:12.588Z,13.83
2023-05-24T07:51:44.121Z,14.40
2023-05-24T07:54:15.936Z,14.17
2023-05-24T07:56:47.428Z,14.17
2023-05-24T07:59:19.203Z,14.25
2023-05-24T08:01:50.692Z,14.21
2023-05-24T08:04:22.199Z,14.32
2023-05-24T08:06:54.141Z,14.59
2023-05-24T08:09:26.159Z,14.68
2023-05-24T08:11:57.669Z,14.77
2023-05-24T08:14:29.145Z,14.28
2023-05-24T08:17:01.019Z,14.21
2023-05-24T08:19:32.562Z,14.17
2023-05-24T08:22:04.263Z,14.13
2023-05-24T08:24:35.750Z,14.04
2023-05-24T08:27:07.689Z,14.46
2023-05-24T08:29:39.187Z,14.47
2023-05-24T08:32:10.724Z,14.49
2023-05-24T08:34:42.318Z,14.58
2023-05-24T08:37:15.539Z,14.60
2023-05-24T08:39:48.032Z,14.39
2023-05-24T08:42:19.776Z,14.80
2023-05-24T08:44:51.464Z,14.93
2023-05-24T08:47:22.981Z,15.34
2023-05-24T08:49:54.503Z,15.58
2023-05-24T08:52:25.986Z,15.66
2023-05-24T08:54:57.501Z,15.87
2023-05-24T08:57:29.004Z,15.66
2023-05-24T09:00:00.528Z,16.01
2023-05-24T09:02:32.029Z,15.68
2023-05-24T09:05:04.289Z,16.06
2023-05-24T09:07:35.782Z,16.57
2023-05-24T09:10:07.605Z,16.96
2023-05-24T09:12:39.589Z,16.74
2023-05-24T09:15:11.358Z,17.02
2023-05-24T09:17:43.323Z,16.98
2023-05-24T09:20:14.978Z,16.86
2023-05-24T09:22:46.642Z,16.91
2023-05-24T09:25:18.135Z,17.02
2023-05-24T09:27:50.084Z,16.88
2023-05-24T09:30:21.585Z,16.99
2023-05-24T09:32:53.197Z,16.91
2023-05-24T09:35:24.715Z,17.10
2023-05-24T09:37:56.756Z,16.80
2023-05-24T09:40:28.558Z,17.22
2023-05-24T09:43:00.032Z,17.33
2023-05-24T09:45:31.896Z,17.69
2023-05-24T09:48:03.433Z,17.67
2023-05-24T09:50:34.987Z,17.90
2023-05-24T09:53:06.465Z,17.37
2023-05-24T09:55:38.481Z,17.64
2023-05-24T09:58:09.990Z,17.43
2023-05-24T10:00:42.294Z,16.90
2023-05-24T10:03:14.326Z,16.63
2023-05-24T10:05:46.193Z,16.73
2023-05-24T10:08:18.138Z,16.73
2023-05-24T10:10:50.143Z,16.83
2023-05-24T10:13:21.820Z,16.47
2023-05-24T10:15:53.312Z,16.17
2023-05-24T10:18:25.157Z,16.07
2023-05-24T10:20:56.749Z,16.17
2023-05-24T10:23:28.788Z,16.61
2023-05-24T10:26:00.359Z,16.71
2023-05-24T10:28:32.341Z,17.01
2023-05-24T10:31:04.046Z,17.59
2023-05-24T10:33:35.669Z,17.19
2023-05-24T10:36:09.433Z,17.49
2023-05-24T10:38:41.349Z,17.27
2023-05-24T10:41:13.190Z,17.56
2023-05-24T10:43:53.459Z,17.13
2023-05-24T10:46:33.088Z,16.77
2023-05-24T10:49:04.675Z,16.85
2023-05-24T10:51:36.187Z,16.75
2023-05-24T10:54:09.062Z,16.53
2023-05-24T10:56:40.724Z,16.47
2023-05-24T10:59:12.234Z,16.50
2023-05-24T11:01:44.136Z,16.26
2023-05-24T11:04:15.683Z,16.48
2023-05-24T11:06:47.224Z,16.89
2023-05-24T11:09:18.993Z,17.01
2023-05-24T11:11:50.516Z,17.12
2023-05-24T11:14:22.038Z,17.26
2023-05-24T11:16:53.630Z,16.86
2023-05-24T11:19:25.202Z,16.65
2023-05-24T11:21:56.691Z,17.70
2023-05-24T11:24:28.534Z,18.72
2023-05-24T11:27:00.023Z,18.89
2023-05-24T11:29:31.919Z,19.21
2023-05-24T11:32:03.841Z,18.70
2023-05-24T11:34:35.664Z,19.57
2023-05-24T11:37:07.516Z,18.65
2023-05-24T11:39:39.009Z,19.10
2023-05-24T11:42:10.856Z,19.47
2023-05-24T11:44:42.702Z,19.75
2023-05-24T11:47:14.551Z,19.50
2023-05-24T11:49:46.508Z,19.19
2023-05-24T11:52:17.998Z,18.69
2023-05-24T11:54:49.888Z,18.46
2023-05-24T11:57:21.384Z,18.54
2023-05-24T11:59:52.883Z,18.73
2023-05-24T12:02:24.476Z,18.08
2023-05-24T12:04:56.497Z,17.72
2023-05-24T12:07:27.999Z,17.94
2023-05-24T12:09:59.811Z,18.40
2023-05-24T12:12:38.721Z,18.81
2023-05-24T12:15:17.300Z,18.93
2023-05-24T12:17:49.154Z,19.17
2023-05-24T12:20:20.736Z,19.70
2023-05-24T12:22:52.910Z,20.11
2023-05-24T12:25:24.415Z,21.38
2023-05-24T12:27:56.433Z,21.41
2023-05-24T12:30:27.936Z,20.87
2023-05-24T12:33:01.330Z,20.16
2023-05-24T12:35:32.873Z,19.43
2023-05-24T12:38:04.845Z,19.24
2023-05-24T12:40:36.341Z,18.92
2023-05-24T12:43:08.105Z,18.86
2023-05-24T12:45:39.617Z,18.57
2023-05-24T12:48:11.492Z,18.95
2023-05-24T12:50:43.662Z,18.59
2023-05-24T12:53:15.379Z,18.50
2023-05-24T12:55:46.895Z,18.53
2023-05-24T12:58:18.395Z,18.12
2023-05-24T13:00:50.023Z,18.33
2023-05-24T13:03:21.662Z,18.53
2023-05-24T13:05:53.723Z,18.74
2023-05-24T13:08:25.268Z,18.97
2023-05-24T13:10:56.933Z,19.43
2023-05-24T13:13:28.458Z,19.27
2023-05-24T13:16:00.242Z,19.97
2023-05-24T13:18:32.002Z,19.87
2023-05-24T13:21:03.491Z,19.74
2023-05-24T13:23:34.986Z,20.12
2023-05-24T13:26:06.503Z,19.82
2023-05-24T13:28:40.491Z,20.20
2023-05-24T13:31:17.333Z,20.18
2023-05-24T13:33:49.054Z,20.41
2023-05-24T13:36:20.526Z,19.56
2023-05-24T13:39:02.339Z,19.93
2023-05-24T13:41:44.349Z,20.04
2023-05-24T13:44:16.086Z,19.76
2023-05-24T13:46:47.986Z,19.98
2023-05-24T13:49:19.550Z,19.84
2023-05-24T13:51:51.427Z,19.96
2023-05-24T13:54:22.908Z,19.51
2023-05-24T13:56:54.748Z,19.37
2023-05-24T13:59:26.246Z,18.47
2023-05-24T14:01:57.991Z,18.35
2023-05-24T14:04:29.505Z,18.05
2023-05-24T14:07:01.550Z,18.01
2023-05-24T14:09:33.387Z,18.02
2023-05-24T14:12:05.234Z,18.27
2023-05-24T14:14:59.411Z,19.58
2023-05-24T14:17:28.214Z,21.20
2023-05-24T14:20:00.226Z,21.11
2023-05-24T14:22:31.790Z,21.93
2023-05-24T14:25:03.677Z,22.83
2023-05-24T14:27:35.154Z,22.47
2023-05-24T14:30:06.976Z,21.95
2023-05-24T14:32:38.523Z,22.51
2023-05-24T14:35:10.404Z,22.95
2023-05-24T14:37:42.246Z,23.24
2023-05-24T14:40:13.795Z,22.55
2023-05-24T14:42:45.372Z,22.67
2023-05-24T14:45:16.893Z,23.24
2023-05-24T14:47:48.772Z,23.26
2023-05-24T14:50:20.282Z,23.71
2023-05-24T14:52:53.718Z,23.48
2023-05-24T14:55:26.755Z,23.25
2023-05-24T14:57:58.613Z,23.47
2023-05-24T15:00:30.131Z,24.23
2023-05-24T15:03:01.971Z,24.50
2023-05-24T15:05:33.546Z,25.00
2023-05-24T15:08:05.222Z,24.47
2023-05-24T15:10:36.748Z,24.25
2023-05-24T15:13:08.268Z,24.42
2023-05-24T15:15:39.771Z,23.97
2023-05-24T15:18:11.265Z,24.74
2023-05-24T15:20:43.413Z,25.11
2023-05-24T15:23:15.191Z,24.06
2023-05-24T15:25:47.177Z,24.56
2023-05-24T15:28:18.761Z,24.20
2023-05-24T15:30:50.339Z,22.40
2023-05-24T15:33:21.914Z,22.08
2023-05-24T15:35:53.451Z,23.10
2023-05-24T15:38:25.260Z,22.90
2023-05-24T15:40:57.167Z,23.34
2023-05-24T15:43:28.909Z,23.20
2023-05-24T15:46:00.404Z,23.30
2023-05-24T15:48:32.320Z,22.73
2023-05-24T15:51:58.046Z,23.52
2023-05-24T15:53:55.280Z,23.74
2023-05-24T15:56:26.787Z,23.89
2023-05-24T15:58:58.309Z,23.31
2023-05-24T16:01:29.839Z,22.65
2023-05-24T16:04:01.428Z,22.64
2023-05-24T16:06:33.114Z,22.89
2023-05-24T16:09:04.636Z,22.20
2023-05-24T16:11:36.151Z,21.99
2023-05-24T16:14:07.639Z,21.34
2023-05-24T16:16:39.324Z,20.63
2023-05-24T16:19:10.850Z,20.53
2023-05-24T16:21:42.676Z,20.09
2023-05-24T16:24:14.211Z,19.88
2023-05-24T16:26:45.726Z,19.60
2023-05-24T16:29:17.222Z,18.95
2023-05-24T16:31:49.099Z,18.48
2023-05-24T16:34:20.665Z,18.41
2023-05-24T16:36:52.202Z,17.99
2023-05-24T16:39:23.700Z,18.18
2023-05-24T16:41:55.461Z,18.39
2023-05-24T16:44:26.966Z,18.30
2023-05-24T16:46:58.770Z,18.45
2023-05-24T16:49:30.646Z,18.22
2023-05-24T16:52:02.136Z,18.11
2023-05-24T16:54:33.643Z,18.02
2023-05-24T16:57:05.166Z,17.82
2023-05-24T16:59:36.691Z,17.57
2023-05-24T17:02:08.174Z,17.45
2023-05-24T17:04:39.709Z,17.30
2023-05-24T17:07:11.215Z,17.56
2023-05-24T17:09:42.994Z,17.29
2023-05-24T17:12:14.488Z,17.21
2023-05-24T17:14:46.326Z,17.23
2023-05-24T17:17:18.149Z,17.21
2023-05-24T17:19:49.695Z,17.21
2023-05-24T17:22:21.594Z,17.15
2023-05-24T17:24:53.092Z,16.99
2023-05-24T17:27:24.940Z,16.90
2023-05-24T17:29:56.436Z,16.81
2023-05-24T17:32:28.140Z,16.66
2023-05-24T17:34:59.674Z,16.65
2023-05-24T17:37:31.180Z,16.52
2023-05-24T17:40:02.665Z,16.52
2023-05-24T17:42:34.148Z,16.62
2023-05-24T17:45:05.689Z,15.12
2023-05-24T17:47:37.211Z,16.52
2023-05-24T17:50:09.199Z,16.47
2023-05-24T17:52:40.696Z,16.48
2023-05-24T17:55:12.215Z,16.47
2023-05-24T17:57:43.706Z,16.19
2023-05-24T18:00:15.420Z,16.06
2023-05-24T18:02:47.582Z,15.95
2023-05-24T18:05:19.871Z,15.89
2023-05-24T18:07:51.404Z,15.85
2023-05-24T18:10:23.331Z,15.78
2023-05-24T18:12:54.864Z,15.67
2023-05-24T18:15:26.715Z,15.70
2023-05-24T18:17:58.247Z,15.65
2023-05-24T18:20:30.007Z,15.60
2023-05-24T18:23:01.915Z,15.53
2023-05-24T18:25:33.691Z,15.48
2023-05-24T18:28:05.490Z,15.28
2023-05-24T18:30:37.001Z,15.26
2023-05-24T18:33:08.931Z,15.24
2023-05-24T18:35:40.716Z,15.21
2023-05-24T18:38:12.642Z,15.15
2023-05-24T18:40:44.153Z,15.10
2023-05-24T18:43:16.007Z,14.99
2023-05-24T18:45:47.523Z,14.88
2023-05-24T18:48:19.425Z,14.68
2023-05-24T18:50:50.931Z,14.66
2023-05-24T18:53:22.753Z,14.59
2023-05-24T18:55:54.282Z,14.51
2023-05-24T18:58:25.767Z,14.43
2023-05-24T19:00:57.379Z,14.34
2023-05-24T19:03:28.974Z,14.25
2023-05-24T19:06:00.861Z,14.17
2023-05-24T19:08:32.390Z,14.06
2023-05-24T19:11:04.077Z,13.97
2023-05-24T19:13:35.645Z,13.92
2023-05-24T19:16:07.348Z,13.82
2023-05-24T19:18:38.929Z,13.66
2023-05-24T19:21:10.804Z,13.61
2023-05-24T19:23:42.424Z,13.55
2023-05-24T19:26:14.228Z,13.47
2023-05-24T19:28:45.795Z,13.39
2023-05-24T19:31:17.709Z,13.33
2023-05-24T19:34:00.100Z,13.26
2023-05-24T19:36:32.583Z,13.15
2023-05-24T19:39:04.094Z,13.05
2023-05-24T19:41:35.575Z,12.97
2023-05-24T19:44:07.293Z,12.89
2023-05-24T19:46:38.836Z,12.80
2023-05-24T19:49:10.401Z,12.76
2023-05-24T19:51:41.997Z,12.71
2023-05-24T19:54:13.660Z,12.67
2023-05-24T19:56:45.257Z,12.59
2023-05-24T19:59:17.203Z,12.50
2023-05-24T20:01:49.233Z,12.45
2023-05-24T20:04:20.871Z,12.39
2023-05-24T20:06:52.685Z,12.33
2023-05-24T20:09:24.179Z,11.60
2023-05-24T20:11:55.715Z,12.23
2023-05-24T20:14:27.218Z,12.17
2023-05-24T20:16:59.152Z,12.12
2023-05-24T20:19:30.670Z,12.08
2023-05-24T20:22:02.431Z,12.02
2023-05-24T20:24:33.927Z,11.97
2023-05-24T20:27:05.449Z,11.97
2023-05-24T20:29:36.952Z,11.95
2023-05-24T20:32:08.677Z,11.97
2023-05-24T20:34:40.233Z,11.95
2023-05-24T20:37:11.752Z,11.94
2023-05-24T20:39:43.604Z,11.92
2023-05-24T20:42:15.110Z,11.91
2023-05-24T20:44:47.065Z,11.89
2023-05-24T20:47:18.572Z,11.82
2023-05-24T20:49:50.062Z,11.78
2023-05-24T20:52:21.554Z,11.75
2023-05-24T20:54:53.236Z,11.69
2023-05-24T20:57:25.171Z,11.66
2023-05-24T20:59:56.953Z,11.57
2023-05-24T21:02:28.875Z,11.53
2023-05-24T21:05:00.463Z,11.53
2023-05-24T21:07:32.098Z,11.54
2023-05-24T21:10:03.589Z,11.54
2023-05-24T21:12:35.117Z,11.53
2023-05-24T21:15:06.626Z,11.51
2023-05-24T21:17:38.185Z,11.53
2023-05-24T21:20:09.719Z,11.51
2023-05-24T21:22:41.260Z,11.48
2023-05-24T21:25:12.781Z,11.41
2023-05-24T21:27:44.648Z,11.39
2023-05-24T21:30:16.505Z,10.73
2023-05-24T21:32:48.483Z,11.33
2023-05-24T21:35:20.044Z,11.26
2023-05-24T21:37:51.513Z,11.23
2023-05-24T21:40:23.252Z,11.20
2023-05-24T21:42:54.740Z,11.19
2023-05-24T21:45:26.750Z,11.16
2023-05-24T21:47:58.311Z,11.13
2023-05-24T21:50:30.273Z,11.11
2023-05-24T21:53:01.765Z,11.07
2023-05-24T21:55:33.580Z,11.03
2023-05-24T21:58:05.095Z,10.98
2023-05-24T22:00:36.618Z,10.97
2023-05-24T22:03:08.561Z,10.94
2023-05-24T22:05:40.207Z,10.90
2023-05-24T22:08:12.242Z,10.88
2023-05-24T22:10:43.751Z,10.86
2023-05-24T22:13:15.617Z,10.82
2023-05-24T22:15:47.123Z,10.79
2023-05-24T22:18:19.014Z,10.77
2023-05-24T22:20:50.582Z,10.74
2023-05-24T22:23:22.581Z,10.72
2023-05-24T22:25:54.057Z,10.70
2023-05-24T22:28:25.858Z,10.69
2023-05-24T22:30:57.608Z,10.65
2023-05-24T22:33:29.428Z,10.62
2023-05-24T22:36:00.938Z,10.58
2023-05-24T22:38:32.444Z,10.51
2023-05-24T22:41:04.264Z,10.48
2023-05-24T22:43:35.720Z,10.44
2023-05-24T22:46:10.541Z,10.42
2023-05-24T22:48:42.257Z,10.39
2023-05-24T22:51:14.067Z,10.38
2023-05-24T22:53:45.651Z,10.37
2023-05-24T22:56:17.445Z,10.34
2023-05-24T22:58:48.964Z,10.32
2023-05-24T23:01:20.877Z,10.32
2023-05-24T23:03:52.607Z,10.29
2023-05-24T23:06:24.155Z,10.22
2023-05-24T23:08:55.826Z,10.16
2023-05-24T23:11:27.305Z,10.10
2023-05-24T23:13:59.129Z,10.07
2023-05-24T23:16:30.643Z,10.05
2023-05-24T23:19:02.187Z,10.02
2023-05-24T23:21:33.678Z,9.99
2023-05-24T23:24:05.748Z,9.96
2023-05-24T23:26:37.257Z,9.92
2023-05-24T23:29:09.011Z,9.92
2023-05-24T23:31:40.716Z,9.89
2023-05-24T23:34:12.251Z,9.87
2023-05-24T23:36:44.094Z,9.83
2023-05-24T23:39:15.573Z,9.78
2023-05-24T23:41:47.515Z,9.73
2023-05-24T23:44:19.002Z,9.68
2023-05-24T23:46:50.902Z,9.66
2023-05-24T23:49:22.494Z,9.64
2023-05-24T23:51:54.347Z,9.62
2023-05-24T23:54:25.835Z,9.59
2023-05-24T23:56:57.668Z,9.57
2023-05-24T23:59:29.699Z,9.56
